Time;durP1;ratioP1;P1;durP2;ratioP2;P2;SDS_P1;SDS_P2;PMS_P1;PMS_P2;Temp;Humidity;BMP_temperature;BMP_pressure;BME280_temperature;BME280_humidity;BME280_pressure;Samples;Min_cycle;Max_cycle;Signal;HPM_P1;HPM_P2
2023/07/19 00:01:38;;;;;;;4.30;2.10;;;18.00;99.90;;;;;;5117388;27;20044;-79
2023/07/19 00:04:04;;;;;;;4.10;2.00;;;18.00;99.90;;;;;;5127194;27;20031;-79
2023/07/19 00:06:29;;;;;;;4.80;2.22;;;18.00;99.90;;;;;;5107198;28;20044;-79
2023/07/19 00:08:55;;;;;;;4.43;2.33;;;18.00;99.90;;;;;;5127841;27;20397;-79
2023/07/19 00:11:21;;;;;;;2.88;2.20;;;18.00;99.90;;;;;;5116860;27;20042;-79
2023/07/19 00:13:47;;;;;;;3.83;2.35;;;17.90;99.90;;;;;;5130600;27;20122;-80
2023/07/19 00:16:12;;;;;;;4.03;2.05;;;17.90;99.90;;;;;;5127077;27;20109;-79
2023/07/19 00:18:38;;;;;;;3.45;1.95;;;17.80;99.90;;;;;;5126226;27;20142;-79
2023/07/19 00:21:04;;;;;;;3.28;1.90;;;17.80;99.90;;;;;;5120013;27;20046;-79
2023/07/19 00:23:29;;;;;;;4.10;1.90;;;17.80;99.90;;;;;;5116879;27;20422;-80
2023/07/19 00:25:55;;;;;;;3.70;2.20;;;17.70;99.90;;;;;;5119422;27;20035;-79
2023/07/19 00:28:20;;;;;;;4.45;2.13;;;17.70;99.90;;;;;;5107999;27;20455;-79
2023/07/19 00:30:46;;;;;;;2.80;1.90;;;17.70;99.90;;;;;;5128676;27;20087;-80
2023/07/19 00:33:11;;;;;;;2.95;1.95;;;17.70;99.90;;;;;;5120362;27;20120;-79
2023/07/19 00:35:43;;;;;;;3.20;1.63;;;17.60;99.90;;;;;;5126299;27;20035;-79
2023/07/19 00:38:09;;;;;;;2.63;1.70;;;17.40;99.90;;;;;;5131089;27;20043;-81
2023/07/19 00:40:34;;;;;;;3.30;1.73;;;17.30;99.90;;;;;;5113607;27;20035;-79
2023/07/19 00:43:00;;;;;;;4.28;1.88;;;17.30;99.90;;;;;;5107854;27;20039;-80
2023/07/19 00:45:26;;;;;;;4.45;2.08;;;17.30;99.90;;;;;;5103862;28;20044;-79
2023/07/19 00:47:53;;;;;;;2.80;1.70;;;17.30;99.90;;;;;;5095394;28;20028;-81
2023/07/19 00:50:19;;;;;;;4.53;1.90;;;17.30;99.90;;;;;;5118335;27;20500;-80
2023/07/19 00:52:45;;;;;;;2.85;1.90;;;17.20;99.90;;;;;;5125904;27;20050;-80
2023/07/19 00:55:11;;;;;;;4.20;2.35;;;17.30;99.90;;;;;;5103041;28;20107;-80
2023/07/19 00:57:37;;;;;;;4.20;1.90;;;17.30;99.90;;;;;;5120229;27;20078;-79
2023/07/19 01:00:04;;;;;;;2.90;2.03;;;17.30;99.90;;;;;;5129655;27;20031;-79
2023/07/19 01:02:30;;;;;;;2.58;1.88;;;17.30;99.90;;;;;;5123468;27;20066;-80
2023/07/19 01:04:56;;;;;;;3.13;1.98;;;17.40;99.90;;;;;;5113569;27;20035;-80
2023/07/19 01:07:21;;;;;;;3.20;2.30;;;17.40;99.90;;;;;;5128877;27;20039;-81
2023/07/19 01:09:48;;;;;;;3.08;1.88;;;17.40;99.90;;;;;;5105564;27;20406;-79
2023/07/19 01:12:14;;;;;;;2.42;2.00;;;17.50;99.90;;;;;;5117958;27;20498;-79
2023/07/19 01:14:39;;;;;;;5.32;2.35;;;17.50;99.90;;;;;;5119672;27;20078;-80
2023/07/19 01:17:05;;;;;;;4.10;2.10;;;17.40;99.90;;;;;;5126816;27;20115;-79
2023/07/19 01:19:31;;;;;;;4.07;2.28;;;17.40;99.90;;;;;;5119419;27;20452;-79
2023/07/19 01:21:58;;;;;;;3.70;2.15;;;17.30;99.90;;;;;;5131259;27;20047;-79
2023/07/19 01:24:23;;;;;;;3.13;2.05;;;17.40;99.90;;;;;;5118461;27;20505;-81
2023/07/19 01:26:49;;;;;;;3.85;2.00;;;17.30;99.90;;;;;;5111950;28;20047;-79
2023/07/19 01:29:14;;;;;;;4.97;2.40;;;17.30;99.90;;;;;;5098756;28;20049;-79
2023/07/19 01:31:40;;;;;;;4.22;2.20;;;17.30;99.90;;;;;;5127615;28;20039;-80
2023/07/19 01:34:05;;;;;;;4.38;2.13;;;17.30;99.90;;;;;;5127024;28;21582;-80
2023/07/19 01:36:31;;;;;;;4.72;2.47;;;17.30;99.90;;;;;;5108969;28;20520;-79
2023/07/19 01:38:57;;;;;;;4.38;2.10;;;17.30;99.90;;;;;;5124173;27;20065;-79
2023/07/19 01:41:22;;;;;;;2.58;1.88;;;17.20;99.90;;;;;;5120151;28;20038;-80
2023/07/19 01:43:48;;;;;;;4.85;2.25;;;17.10;99.90;;;;;;5115937;28;20053;-79
2023/07/19 01:46:13;;;;;;;4.43;2.08;;;17.10;99.90;;;;;;5103834;28;20091;-79
2023/07/19 01:48:39;;;;;;;4.47;2.30;;;17.10;99.90;;;;;;5102873;27;20047;-79
2023/07/19 01:51:05;;;;;;;4.15;2.30;;;17.10;99.90;;;;;;5116574;28;20389;-79
2023/07/19 01:53:30;;;;;;;3.60;2.28;;;17.20;99.90;;;;;;5122941;28;20501;-79
2023/07/19 01:55:56;;;;;;;3.13;2.15;;;17.20;99.90;;;;;;5113665;28;20043;-79
2023/07/19 01:58:22;;;;;;;3.67;2.70;;;17.20;99.90;;;;;;5125314;28;20397;-80
2023/07/19 02:00:48;;;;;;;4.32;2.67;;;17.10;99.90;;;;;;5110024;28;20035;-79
2023/07/19 02:03:13;;;;;;;4.53;2.67;;;17.10;99.90;;;;;;5124362;28;20043;-79
2023/07/19 02:05:39;;;;;;;5.93;2.85;;;17.10;99.90;;;;;;5115012;28;20035;-79
2023/07/19 02:08:05;;;;;;;4.30;2.50;;;17.10;99.90;;;;;;5128582;28;20474;-79
2023/07/19 02:10:30;;;;;;;5.78;2.75;;;17.00;99.90;;;;;;5115398;28;20027;-79
2023/07/19 02:12:56;;;;;;;3.90;2.50;;;17.00;99.90;;;;;;5106570;28;20040;-79
2023/07/19 02:15:21;;;;;;;3.72;2.90;;;17.10;99.90;;;;;;5127927;28;20035;-79
2023/07/19 02:17:47;;;;;;;4.57;3.00;;;17.00;99.90;;;;;;5110405;28;20123;-79
2023/07/19 02:20:13;;;;;;;5.72;3.38;;;17.10;99.90;;;;;;5107955;28;20468;-80
2023/07/19 02:22:39;;;;;;;6.32;3.83;;;17.10;99.90;;;;;;5111598;28;20130;-79
2023/07/19 02:25:05;;;;;;;4.07;3.22;;;17.10;99.90;;;;;;5120908;27;20059;-80
2023/07/19 02:27:30;;;;;;;6.82;3.72;;;17.10;99.90;;;;;;5121821;28;20140;-79
2023/07/19 02:29:56;;;;;;;6.00;3.53;;;17.10;99.90;;;;;;5099915;28;20038;-79
2023/07/19 02:32:22;;;;;;;4.80;3.60;;;17.10;99.90;;;;;;5121388;27;20028;-79
2023/07/19 02:34:47;;;;;;;5.57;3.63;;;17.10;99.90;;;;;;5103434;27;20039;-79
2023/07/19 02:37:13;;;;;;;4.75;4.00;;;17.10;99.90;;;;;;5117517;27;20044;-79
2023/07/19 02:39:38;;;;;;;5.80;3.88;;;17.00;99.90;;;;;;5118263;27;20039;-79
2023/07/19 02:42:04;;;;;;;4.30;3.20;;;17.00;99.90;;;;;;5128758;27;20046;-79
2023/07/19 02:44:30;;;;;;;6.65;4.03;;;17.00;99.90;;;;;;5132390;27;20035;-79
2023/07/19 02:46:56;;;;;;;6.03;3.80;;;17.00;99.90;;;;;;5103201;27;20799;-80
2023/07/19 02:49:23;;;;;;;5.90;4.13;;;16.90;99.90;;;;;;5132351;27;20032;-80
2023/07/19 02:51:48;;;;;;;5.57;3.75;;;16.80;99.90;;;;;;5137036;27;20047;-79
2023/07/19 02:54:14;;;;;;;7.32;4.03;;;16.90;99.90;;;;;;5126222;27;20031;-79
2023/07/19 02:56:40;;;;;;;4.63;3.72;;;16.80;99.90;;;;;;5127988;27;20099;-79
2023/07/19 02:59:05;;;;;;;5.38;4.20;;;16.80;99.90;;;;;;5114022;28;20043;-79
2023/07/19 03:01:31;;;;;;;4.88;3.80;;;16.80;99.90;;;;;;5114814;27;20035;-79
2023/07/19 03:03:57;;;;;;;6.72;4.13;;;16.80;99.90;;;;;;5114506;27;20123;-79
2023/07/19 03:06:23;;;;;;;5.50;3.97;;;16.80;99.90;;;;;;5130522;27;20038;-79
2023/07/19 03:08:48;;;;;;;7.03;4.38;;;16.80;99.90;;;;;;5130795;27;20405;-79
2023/07/19 03:11:14;;;;;;;7.32;4.68;;;16.80;99.90;;;;;;5128875;27;20039;-80
2023/07/19 03:13:39;;;;;;;7.15;4.65;;;16.70;99.90;;;;;;5128589;27;20039;-79
2023/07/19 03:16:05;;;;;;;10.85;4.88;;;16.70;99.90;;;;;;5116301;27;20123;-79
2023/07/19 03:18:31;;;;;;;7.15;4.60;;;16.70;99.90;;;;;;5129848;27;20118;-79
2023/07/19 03:21:01;;;;;;;7.22;4.47;;;16.70;99.90;;;;;;5107967;27;20038;-79
2023/07/19 03:23:30;;;;;;;5.50;4.40;;;16.80;99.90;;;;;;5126217;27;20123;-79
2023/07/19 03:25:57;;;;;;;8.77;4.45;;;16.70;99.90;;;;;;5106746;27;20371;-80
2023/07/19 03:28:27;;;;;;;5.70;4.43;;;16.60;99.90;;;;;;5117301;27;20047;-79
2023/07/19 03:30:54;;;;;;;7.45;4.80;;;16.50;99.90;;;;;;5119050;27;20027;-79
2023/07/19 03:33:24;;;;;;;6.22;4.68;;;16.50;99.90;;;;;;5112404;27;20027;-79
2023/07/19 03:35:50;;;;;;;5.53;4.40;;;16.50;99.90;;;;;;5131404;27;20071;-81
2023/07/19 03:38:17;;;;;;;5.28;4.40;;;16.50;99.90;;;;;;5109330;27;20073;-78
2023/07/19 03:40:43;;;;;;;5.97;4.70;;;16.50;99.90;;;;;;5129530;27;20050;-79
2023/07/19 03:43:08;;;;;;;6.57;5.07;;;16.60;99.90;;;;;;5132444;27;20034;-84
2023/07/19 03:45:34;;;;;;;5.68;4.53;;;16.60;99.90;;;;;;5112604;27;20405;-79
2023/07/19 03:47:59;;;;;;;5.53;4.72;;;16.60;99.90;;;;;;5106771;27;20039;-79
2023/07/19 03:50:25;;;;;;;5.90;4.47;;;16.60;99.90;;;;;;5128794;27;20031;-79
2023/07/19 03:52:51;;;;;;;8.40;5.10;;;16.60;99.90;;;;;;5125756;27;20035;-78
2023/07/19 03:55:17;;;;;;;4.78;4.07;;;16.60;99.90;;;;;;5122784;27;20073;-79
2023/07/19 03:57:42;;;;;;;6.25;4.57;;;16.60;99.90;;;;;;5119079;27;20189;-81
2023/07/19 04:00:09;;;;;;;6.47;5.05;;;16.70;99.90;;;;;;5125859;27;20078;-79
2023/07/19 04:02:34;;;;;;;8.25;5.43;;;16.70;99.90;;;;;;5115949;27;20043;-80
2023/07/19 04:05:00;;;;;;;6.30;4.88;;;16.60;99.90;;;;;;5115013;27;20035;-79
2023/07/19 04:07:26;;;;;;;6.55;4.68;;;16.60;99.90;;;;;;5124967;27;20122;-79
2023/07/19 04:09:52;;;;;;;7.45;4.95;;;16.60;99.90;;;;;;5105451;27;20023;-80
2023/07/19 04:12:18;;;;;;;6.63;5.18;;;16.60;99.90;;;;;;5122017;27;20846;-79
2023/07/19 04:14:43;;;;;;;8.30;5.85;;;16.60;99.90;;;;;;5121440;27;20073;-79
2023/07/19 04:17:10;;;;;;;8.02;5.18;;;16.60;99.90;;;;;;5117098;27;20042;-79
2023/07/19 04:19:35;;;;;;;6.47;5.80;;;16.60;99.90;;;;;;5117083;27;20115;-79
2023/07/19 04:22:01;;;;;;;8.15;6.00;;;16.60;99.90;;;;;;5125719;27;20127;-79
2023/07/19 04:24:27;;;;;;;10.77;5.95;;;16.60;99.90;;;;;;5129984;27;20092;-79
2023/07/19 04:26:52;;;;;;;7.07;5.53;;;16.70;99.90;;;;;;5127210;27;20660;-79
2023/07/19 04:29:19;;;;;;;9.77;6.40;;;16.70;99.90;;;;;;5107570;28;20035;-79
2023/07/19 04:31:45;;;;;;;7.07;6.38;;;16.80;99.90;;;;;;5129305;27;20122;-79
2023/07/19 04:34:10;;;;;;;8.75;6.38;;;16.80;99.90;;;;;;5123632;27;20469;-79
2023/07/19 04:36:36;;;;;;;9.23;6.20;;;16.80;99.90;;;;;;5114646;27;20042;-79
2023/07/19 04:39:01;;;;;;;8.02;5.88;;;16.70;99.90;;;;;;5122724;27;20118;-79
2023/07/19 04:41:27;;;;;;;8.75;6.20;;;16.70;99.90;;;;;;5100752;28;20130;-80
2023/07/19 04:43:52;;;;;;;7.95;6.03;;;16.80;99.90;;;;;;5124081;27;20134;-78
2023/07/19 04:46:18;;;;;;;7.15;5.70;;;16.80;99.90;;;;;;5124695;27;20088;-79
2023/07/19 04:48:44;;;;;;;7.30;6.00;;;16.80;99.90;;;;;;5100498;27;20100;-78
2023/07/19 04:51:09;;;;;;;10.07;6.55;;;16.80;99.90;;;;;;5124530;27;20425;-79
2023/07/19 04:53:35;;;;;;;8.35;6.60;;;16.80;99.90;;;;;;5119688;27;20064;-78
2023/07/19 04:56:00;;;;;;;7.63;6.07;;;16.80;99.90;;;;;;5127853;27;20028;-78
2023/07/19 04:58:26;;;;;;;9.55;6.28;;;16.80;99.90;;;;;;5109319;27;20181;-78
2023/07/19 05:00:52;;;;;;;8.73;6.50;;;16.80;99.90;;;;;;5115912;27;20690;-78
2023/07/19 05:03:17;;;;;;;10.93;6.47;;;16.80;99.90;;;;;;5098328;27;20126;-80
2023/07/19 05:05:43;;;;;;;9.15;6.25;;;16.80;99.90;;;;;;5122492;27;20035;-78
2023/07/19 05:08:08;;;;;;;12.32;6.30;;;16.80;99.90;;;;;;5116757;27;20087;-78
2023/07/19 05:10:37;;;;;;;8.60;5.85;;;16.80;99.90;;;;;;5113778;27;20123;-79
2023/07/19 05:13:04;;;;;;;6.53;5.80;;;16.90;99.90;;;;;;5115665;27;20031;-78
2023/07/19 05:15:30;;;;;;;8.38;6.53;;;16.90;99.90;;;;;;5115261;27;20031;-79
2023/07/19 05:17:55;;;;;;;8.38;6.22;;;16.90;99.90;;;;;;5126062;27;20135;-79
2023/07/19 05:20:21;;;;;;;7.88;5.80;;;16.90;99.90;;;;;;5120939;27;20121;-78
2023/07/19 05:22:46;;;;;;;6.53;5.50;;;16.90;99.90;;;;;;5122811;27;20040;-78
2023/07/19 05:25:12;;;;;;;7.57;5.75;;;17.00;99.90;;;;;;5128787;27;20087;-79
2023/07/19 05:27:38;;;;;;;7.43;5.32;;;17.00;99.90;;;;;;5124087;27;20493;-81
2023/07/19 05:30:04;;;;;;;7.45;5.38;;;17.00;99.90;;;;;;5118761;28;20106;-78
2023/07/19 05:32:29;;;;;;;8.18;4.90;;;17.00;99.90;;;;;;5122211;27;20043;-79
2023/07/19 05:34:56;;;;;;;7.43;4.90;;;17.00;99.90;;;;;;5110682;27;20630;-78
2023/07/19 05:37:21;;;;;;;9.20;5.53;;;17.00;99.90;;;;;;5123372;28;20134;-78
2023/07/19 05:39:48;;;;;;;7.82;5.95;;;17.00;99.90;;;;;;5122015;28;20126;-78
2023/07/19 05:42:14;;;;;;;7.97;5.45;;;17.00;99.90;;;;;;5114178;28;20044;-80
2023/07/19 05:44:40;;;;;;;8.88;6.43;;;17.00;99.90;;;;;;5112326;27;20100;-79
2023/07/19 05:47:05;;;;;;;7.32;5.55;;;17.00;99.90;;;;;;5122395;28;20123;-79
2023/07/19 05:49:31;;;;;;;10.00;5.68;;;17.00;99.90;;;;;;5127882;28;20555;-79
2023/07/19 05:51:56;;;;;;;8.32;5.40;;;17.00;99.90;;;;;;5109588;28;20051;-79
2023/07/19 05:54:22;;;;;;;7.68;5.75;;;17.00;99.90;;;;;;5091362;28;20056;-80
2023/07/19 05:56:47;;;;;;;9.02;6.10;;;17.00;99.90;;;;;;5108221;28;20040;-78
2023/07/19 05:59:13;;;;;;;8.38;5.57;;;17.00;99.90;;;;;;5109521;28;20039;-78
2023/07/19 06:01:39;;;;;;;11.82;5.93;;;17.00;99.90;;;;;;5109980;28;20466;-79
2023/07/19 06:04:05;;;;;;;8.88;5.40;;;17.00;99.90;;;;;;5110034;28;20027;-77
2023/07/19 06:06:33;;;;;;;6.80;5.25;;;17.00;99.90;;;;;;5109907;28;20127;-78
2023/07/19 06:09:01;;;;;;;11.13;5.47;;;17.00;99.90;;;;;;5109790;28;20043;-79
2023/07/19 06:11:26;;;;;;;7.25;5.00;;;17.00;99.90;;;;;;5097079;28;20035;-78
2023/07/19 06:13:52;;;;;;;9.00;5.03;;;17.00;99.90;;;;;;5113597;28;20035;-79
2023/07/19 06:16:17;;;;;;;11.40;5.60;;;17.00;99.90;;;;;;5113912;28;20036;-78
2023/07/19 06:18:43;;;;;;;8.15;4.90;;;16.90;99.90;;;;;;5114236;28;20092;-79
2023/07/19 06:21:08;;;;;;;7.63;4.95;;;16.90;99.90;;;;;;5097068;28;20047;-79
2023/07/19 06:23:34;;;;;;;8.70;5.00;;;16.90;99.90;;;;;;5113053;28;20055;-78
2023/07/19 06:25:59;;;;;;;10.32;4.40;;;16.90;99.90;;;;;;5096569;28;20043;-79
2023/07/19 06:28:25;;;;;;;7.15;3.67;;;16.80;99.90;;;;;;5113171;28;20052;-78
2023/07/19 06:30:51;;;;;;;6.80;3.13;;;16.70;99.90;;;;;;5114063;28;20036;-77
2023/07/19 06:33:16;;;;;;;7.65;2.88;;;16.70;99.90;;;;;;5096184;28;20067;-78
2023/07/19 06:35:43;;;;;;;4.57;2.67;;;16.80;99.90;;;;;;5112930;28;20410;-79
2023/07/19 06:38:08;;;;;;;3.97;2.60;;;16.70;99.90;;;;;;5113779;28;20051;-79
2023/07/19 06:40:34;;;;;;;5.93;2.40;;;16.80;99.90;;;;;;5114231;28;20482;-78
2023/07/19 06:42:59;;;;;;;6.20;2.60;;;16.80;99.90;;;;;;5113625;28;20047;-81
2023/07/19 06:45:25;;;;;;;5.47;2.00;;;16.90;99.90;;;;;;5113284;28;20050;-79
2023/07/19 06:47:50;;;;;;;6.68;1.90;;;16.90;99.90;;;;;;5113380;28;20557;-78
2023/07/19 06:50:17;;;;;;;4.97;1.85;;;17.00;99.90;;;;;;5113358;28;20046;-77
2023/07/19 06:52:43;;;;;;;4.85;1.77;;;17.00;99.90;;;;;;5114456;28;20517;-78
2023/07/19 06:55:09;;;;;;;7.07;2.17;;;16.90;99.90;;;;;;5113844;28;20035;-78
2023/07/19 06:57:34;;;;;;;3.38;1.52;;;16.90;99.90;;;;;;5113019;28;20096;-78
2023/07/19 07:00:00;;;;;;;4.65;1.85;;;17.00;99.90;;;;;;5115108;27;20039;-78
2023/07/19 07:02:25;;;;;;;3.75;1.85;;;17.10;99.90;;;;;;5108854;27;20414;-79
2023/07/19 07:04:51;;;;;;;4.30;1.80;;;17.10;99.90;;;;;;5116568;27;20043;-79
2023/07/19 07:07:19;;;;;;;3.95;2.08;;;17.20;99.90;;;;;;5112807;28;20054;-78
2023/07/19 07:09:45;;;;;;;3.33;1.75;;;17.20;99.90;;;;;;5113224;28;20047;-78
2023/07/19 07:12:11;;;;;;;5.55;1.90;;;17.40;99.90;;;;;;5113049;28;20031;-78
2023/07/19 07:14:37;;;;;;;5.45;1.77;;;17.50;99.90;;;;;;5113454;28;20236;-79
2023/07/19 07:17:04;;;;;;;4.18;1.55;;;17.70;99.90;;;;;;5113125;28;20043;-77
2023/07/19 07:19:29;;;;;;;5.93;1.92;;;17.90;99.90;;;;;;5113460;28;20043;-79
2023/07/19 07:21:55;;;;;;;4.15;1.88;;;18.00;99.90;;;;;;5112729;28;20040;-78
2023/07/19 07:24:20;;;;;;;5.25;1.70;;;18.00;99.90;;;;;;5113058;28;20464;-78
2023/07/19 07:26:46;;;;;;;4.38;1.90;;;18.10;99.90;;;;;;5113043;28;20040;-78
2023/07/19 07:29:11;;;;;;;2.45;1.65;;;18.20;99.90;;;;;;5113287;28;20032;-78
2023/07/19 07:31:37;;;;;;;4.75;1.90;;;18.20;99.90;;;;;;5113830;27;20039;-78
2023/07/19 07:34:02;;;;;;;4.43;1.85;;;18.30;99.90;;;;;;5130762;27;20114;-78
2023/07/19 07:36:28;;;;;;;4.47;1.73;;;18.30;99.90;;;;;;5127621;27;20031;-79
2023/07/19 07:38:53;;;;;;;5.28;2.03;;;18.30;99.90;;;;;;5112593;28;20046;-76
2023/07/19 07:41:19;;;;;;;3.83;1.80;;;18.30;99.90;;;;;;5095509;28;20090;-77
2023/07/19 07:43:45;;;;;;;5.50;2.25;;;18.20;99.90;;;;;;5112059;28;20032;-79
2023/07/19 07:46:10;;;;;;;5.80;2.30;;;18.30;99.90;;;;;;5112882;28;20490;-78
2023/07/19 07:48:36;;;;;;;4.20;2.15;;;18.30;99.90;;;;;;5095156;28;20168;-77
2023/07/19 07:51:01;;;;;;;3.80;1.70;;;18.40;99.90;;;;;;5095307;28;20711;-78
2023/07/19 07:53:27;;;;;;;4.00;1.80;;;18.40;99.90;;;;;;5112140;28;20035;-78
2023/07/19 07:55:53;;;;;;;4.50;1.83;;;18.40;99.90;;;;;;5112553;28;20470;-80
2023/07/19 07:58:19;;;;;;;5.38;2.08;;;18.40;99.90;;;;;;5112218;28;20062;-79
2023/07/19 08:00:45;;;;;;;3.20;1.52;;;18.50;99.90;;;;;;5112324;28;20537;-79
2023/07/19 08:03:10;;;;;;;6.28;2.08;;;18.60;99.90;;;;;;5111760;28;20498;-80
2023/07/19 08:05:40;;;;;;;3.55;1.80;;;18.80;99.90;;;;;;5112264;28;20043;-78
2023/07/19 08:08:06;;;;;;;5.32;1.80;;;18.90;99.90;;;;;;5113409;28;20044;-79
2023/07/19 08:10:32;;;;;;;4.28;1.40;;;18.90;99.90;;;;;;5111841;28;20042;-79
2023/07/19 08:12:58;;;;;;;3.45;1.40;;;19.00;99.90;;;;;;5112005;28;20047;-75
2023/07/19 08:15:24;;;;;;;3.17;1.50;;;19.10;99.90;;;;;;5111515;28;20035;-76
2023/07/19 08:17:51;;;;;;;4.53;1.50;;;19.10;99.90;;;;;;5111684;28;20040;-77
2023/07/19 08:20:17;;;;;;;4.15;1.67;;;18.90;99.90;;;;;;5111398;27;20489;-80
2023/07/19 08:22:42;;;;;;;4.18;1.50;;;19.00;99.90;;;;;;5112119;27;20126;-78
2023/07/19 08:25:08;;;;;;;4.50;1.58;;;19.20;99.90;;;;;;5094531;28;20126;-79
2023/07/19 08:27:33;;;;;;;6.25;1.27;;;19.50;99.90;;;;;;5111467;28;20043;-78
2023/07/19 08:30:00;;;;;;;2.95;1.55;;;19.80;99.90;;;;;;5111404;28;20039;-80
2023/07/19 08:32:26;;;;;;;3.60;1.60;;;19.90;99.90;;;;;;5108797;28;20403;-78
2023/07/19 08:34:51;;;;;;;3.08;1.50;;;20.10;99.90;;;;;;5092434;28;20039;-79
2023/07/19 08:37:18;;;;;;;3.15;1.42;;;20.10;99.90;;;;;;5113166;28;20040;-79
2023/07/19 08:39:44;;;;;;;3.65;1.40;;;20.20;99.90;;;;;;5111839;28;20053;-77
2023/07/19 08:42:09;;;;;;;4.10;1.60;;;20.50;99.90;;;;;;5111492;28;20122;-79
2023/07/19 08:44:36;;;;;;;3.03;1.45;;;20.80;99.90;;;;;;5111012;28;20055;-78
2023/07/19 08:47:04;;;;;;;3.72;1.50;;;21.10;99.90;;;;;;5111104;28;20118;-78
2023/07/19 08:49:31;;;;;;;3.42;1.42;;;21.10;99.90;;;;;;5093854;28;20085;-79
2023/07/19 08:51:59;;;;;;;3.15;1.35;;;20.90;99.90;;;;;;5111016;28;20039;-79
2023/07/19 08:54:24;;;;;;;3.08;1.38;;;20.90;99.90;;;;;;5110531;28;20046;-78
2023/07/19 08:56:50;;;;;;;3.05;1.25;;;20.80;99.90;;;;;;5111023;28;20035;-79
2023/07/19 08:59:16;;;;;;;4.03;1.40;;;20.70;99.90;;;;;;5101760;27;20038;-79
2023/07/19 09:01:42;;;;;;;3.90;1.42;;;20.50;99.90;;;;;;5120290;27;20528;-81
2023/07/19 09:04:11;;;;;;;3.42;1.60;;;20.60;99.90;;;;;;5121831;27;20092;-79
2023/07/19 09:06:38;;;;;;;3.88;1.50;;;20.60;99.90;;;;;;5113756;27;20652;-81
2023/07/19 09:09:04;;;;;;;2.83;1.40;;;20.70;99.90;;;;;;5122819;27;20047;-79
2023/07/19 09:11:30;;;;;;;6.35;1.52;;;20.90;99.90;;;;;;5112489;27;20418;-80
2023/07/19 09:13:58;;;;;;;4.13;1.55;;;21.10;99.90;;;;;;5114582;27;20452;-79
2023/07/19 09:16:32;;;;;;;4.15;1.58;;;21.20;99.90;;;;;;5123395;27;20043;-78
2023/07/19 09:18:59;;;;;;;6.93;2.10;;;21.40;99.90;;;;;;5126076;27;20065;-78
2023/07/19 09:21:42;;;;;;;2.72;1.30;;;21.70;99.90;;;;;;5120218;27;20058;-79
2023/07/19 09:24:09;;;;;;;4.40;1.40;;;21.30;99.90;;;;;;5128590;27;20415;-80
2023/07/19 09:26:49;;;;;;;3.80;1.30;;;21.30;99.90;;;;;;5127285;27;20600;-78
2023/07/19 09:29:14;;;;;;;4.65;1.30;;;21.20;99.90;;;;;;5112751;28;20043;-77
2023/07/19 09:31:53;;;;;;;4.50;1.45;;;20.90;99.90;;;;;;5095115;27;20106;-77
2023/07/19 09:34:34;;;;;;;3.05;1.30;;;21.00;99.90;;;;;;5110888;27;20067;-76
2023/07/19 09:37:01;;;;;;;3.47;1.17;;;20.90;99.90;;;;;;5125487;27;20111;-78
2023/07/19 09:39:27;;;;;;;3.20;1.25;;;20.70;99.90;;;;;;5124581;28;20039;-79
2023/07/19 09:41:54;;;;;;;4.38;1.45;;;20.80;99.90;;;;;;5119055;28;20039;-76
2023/07/19 09:44:21;;;;;;;4.00;1.35;;;20.80;99.90;;;;;;5119191;27;20031;-77
2023/07/19 09:46:48;;;;;;;3.72;1.20;;;20.70;99.90;;;;;;5132591;27;20065;-77
2023/07/19 09:49:14;;;;;;;6.45;1.48;;;20.40;99.90;;;;;;5127508;27;20031;-77
2023/07/19 09:51:41;;;;;;;6.05;1.92;;;20.10;99.90;;;;;;5119341;27;20035;-76
2023/07/19 09:54:09;;;;;;;4.97;1.52;;;19.80;99.90;;;;;;5127926;27;20058;-78
2023/07/19 09:56:35;;;;;;;4.10;1.88;;;19.70;99.90;;;;;;5130259;27;20050;-76
2023/07/19 09:59:03;;;;;;;6.20;2.00;;;19.60;99.90;;;;;;5115125;27;20031;-77
2023/07/19 10:01:29;;;;;;;4.70;1.85;;;19.50;99.90;;;;;;5112630;27;20532;-77
2023/07/19 10:03:57;;;;;;;4.03;1.70;;;19.50;99.90;;;;;;5126685;27;20063;-78
2023/07/19 10:06:32;;;;;;;5.35;1.65;;;19.50;99.90;;;;;;5125646;27;20051;-78
2023/07/19 10:09:23;;;;;;;4.88;2.20;;;19.60;99.90;;;;;;5119814;27;20100;-77
2023/07/19 10:11:52;;;;;;;3.85;1.80;;;19.80;99.90;;;;;;5133754;27;20084;-77
2023/07/19 10:14:26;;;;;;;5.32;2.00;;;20.10;99.90;;;;;;5131000;27;20050;-77
2023/07/19 10:17:03;;;;;;;4.25;1.58;;;19.90;99.90;;;;;;5132444;27;20035;-77
2023/07/19 10:19:28;;;;;;;2.75;1.50;;;19.60;99.90;;;;;;5112798;27;20039;-78
2023/07/19 10:22:05;;;;;;;2.67;1.23;;;19.50;99.90;;;;;;5126060;27;20046;-77
2023/07/19 10:24:35;;;;;;;3.65;1.23;;;19.50;99.90;;;;;;5133291;27;20112;-77
2023/07/19 10:27:06;;;;;;;5.30;1.42;;;19.80;99.90;;;;;;5125133;27;20080;-78
2023/07/19 10:29:45;;;;;;;3.05;1.65;;;20.30;99.90;;;;;;5125044;27;20046;-77
2023/07/19 10:32:11;;;;;;;3.15;1.63;;;20.90;99.90;;;;;;5121325;27;20023;-78
2023/07/19 10:34:37;;;;;;;4.88;1.30;;;21.00;99.90;;;;;;5127503;27;20187;-77
2023/07/19 10:37:04;;;;;;;3.05;1.20;;;20.80;99.90;;;;;;5124071;27;20077;-76
2023/07/19 10:39:31;;;;;;;4.93;1.30;;;20.60;99.90;;;;;;5129117;27;20092;-76
2023/07/19 10:41:57;;;;;;;3.25;1.60;;;20.00;99.90;;;;;;5123922;27;20034;-77
2023/07/19 10:44:24;;;;;;;3.13;1.23;;;19.50;99.90;;;;;;5127985;27;20533;-77
2023/07/19 10:46:49;;;;;;;5.25;1.40;;;19.20;99.90;;;;;;5129115;27;20039;-77
2023/07/19 10:49:15;;;;;;;2.75;1.30;;;19.00;99.90;;;;;;5110121;27;20043;-78
2023/07/19 10:51:54;;;;;;;5.80;1.80;;;18.90;99.90;;;;;;5126488;27;20059;-77
2023/07/19 10:54:20;;;;;;;2.05;1.10;;;18.80;99.90;;;;;;5127678;27;20451;-77
2023/07/19 10:56:50;;;;;;;4.43;1.30;;;18.80;99.90;;;;;;5111611;27;20513;-77
2023/07/19 10:59:16;;;;;;;2.85;1.38;;;18.90;99.90;;;;;;5126857;27;20122;-79
2023/07/19 11:01:41;;;;;;;3.67;1.60;;;19.30;99.90;;;;;;5132312;27;20083;-76
2023/07/19 11:04:07;;;;;;;2.42;1.50;;;19.80;99.90;;;;;;5123067;27;20075;-77
2023/07/19 11:06:35;;;;;;;4.30;1.20;;;20.20;99.90;;;;;;5122056;27;20118;-77
2023/07/19 11:09:06;;;;;;;3.10;1.33;;;20.50;99.90;;;;;;5119586;27;20039;-75
2023/07/19 11:11:36;;;;;;;3.40;1.13;;;20.60;99.90;;;;;;5124373;27;20070;-77
2023/07/19 11:14:02;;;;;;;3.88;1.60;;;20.50;99.90;;;;;;5126781;27;20038;-78
2023/07/19 11:16:28;;;;;;;2.67;1.20;;;20.50;99.90;;;;;;5121115;27;20043;-77
2023/07/19 11:18:54;;;;;;;3.47;1.30;;;20.70;99.90;;;;;;5123074;27;20099;-77
2023/07/19 11:21:25;;;;;;;3.53;1.25;;;20.80;99.90;;;;;;5120730;27;20444;-78
2023/07/19 11:23:51;;;;;;;3.10;1.27;;;20.70;99.90;;;;;;5111080;28;20043;-76
2023/07/19 11:26:18;;;;;;;4.05;1.60;;;20.80;99.90;;;;;;5112764;27;20091;-77
2023/07/19 11:28:50;;;;;;;2.78;1.30;;;20.50;99.90;;;;;;5122108;27;20048;-76
2023/07/19 11:31:40;;;;;;;2.60;1.30;;;20.40;99.90;;;;;;5094793;28;20027;-77
2023/07/19 11:34:16;;;;;;;2.38;1.13;;;20.40;99.90;;;;;;5095510;27;20035;-76
2023/07/19 11:36:44;;;;;;;3.55;1.17;;;20.60;99.90;;;;;;5118642;27;20538;-77
2023/07/19 11:39:13;;;;;;;3.05;1.33;;;20.80;99.90;;;;;;5111942;27;20044;-76
2023/07/19 11:41:41;;;;;;;2.83;1.23;;;21.00;99.90;;;;;;5113834;27;20121;-77
2023/07/19 11:44:13;;;;;;;4.30;1.20;;;20.80;99.90;;;;;;5109604;27;20126;-75
2023/07/19 11:46:39;;;;;;;3.88;1.15;;;20.80;99.90;;;;;;5118412;27;20035;-78
2023/07/19 11:49:09;;;;;;;2.22;1.17;;;20.60;99.90;;;;;;5114737;27;20189;-79
2023/07/19 11:51:36;;;;;;;2.17;1.00;;;20.70;99.90;;;;;;5128578;27;20046;-76
2023/07/19 11:54:01;;;;;;;3.03;1.00;;;20.60;99.90;;;;;;5122439;27;20393;-77
2023/07/19 11:56:28;;;;;;;2.40;1.10;;;20.50;99.90;;;;;;5122718;27;20036;-76
2023/07/19 11:58:53;;;;;;;2.78;1.10;;;20.50;99.90;;;;;;5129621;27;20043;-77
2023/07/19 12:01:20;;;;;;;1.90;1.00;;;20.50;99.90;;;;;;5125311;27;20087;-78
2023/07/19 12:03:46;;;;;;;2.03;0.93;;;20.80;99.90;;;;;;5124393;27;20043;-76
2023/07/19 12:06:14;;;;;;;3.50;1.45;;;21.40;99.90;;;;;;5115995;27;20038;-76
2023/07/19 12:08:41;;;;;;;3.13;1.05;;;21.50;99.90;;;;;;5119182;27;20089;-77
2023/07/19 12:11:07;;;;;;;1.88;1.10;;;21.40;99.90;;;;;;5101280;27;20047;-76
2023/07/19 12:13:33;;;;;;;2.63;1.10;;;21.40;99.90;;;;;;5126979;27;20036;-77
2023/07/19 12:15:59;;;;;;;3.72;1.10;;;21.20;99.90;;;;;;5131770;27;20043;-75
2023/07/19 12:18:27;;;;;;;2.55;1.10;;;21.00;99.90;;;;;;5113835;27;20085;-76
2023/07/19 12:20:53;;;;;;;3.45;0.90;;;21.10;99.90;;;;;;5111362;28;20046;-78
2023/07/19 12:23:19;;;;;;;5.25;1.48;;;21.00;99.90;;;;;;5111097;28;20032;-78
2023/07/19 12:25:44;;;;;;;2.78;1.00;;;21.10;99.90;;;;;;5111437;28;20046;-76
2023/07/19 12:28:10;;;;;;;2.10;1.02;;;21.10;99.90;;;;;;5111126;28;20067;-76
2023/07/19 12:30:37;;;;;;;2.80;0.93;;;21.10;99.90;;;;;;5111271;28;20040;-77
2023/07/19 12:33:02;;;;;;;2.72;1.02;;;21.60;99.90;;;;;;5111265;28;20074;-76
2023/07/19 12:35:28;;;;;;;3.22;0.90;;;22.20;99.90;;;;;;5112206;28;20533;-75
2023/07/19 12:37:53;;;;;;;1.27;0.70;;;22.30;99.90;;;;;;5112512;28;20122;-77
2023/07/19 12:40:19;;;;;;;2.83;0.80;;;22.00;99.90;;;;;;5112324;28;20036;-76
2023/07/19 12:42:44;;;;;;;2.55;1.00;;;21.70;99.90;;;;;;5124195;27;20038;-76